Time;durP1;ratioP1;P1;durP2;ratioP2;P2;SDS_P1;SDS_P2;PMS_P1;PMS_P2;Temp;Humidity;BMP_temperature;BMP_pressure;BME280_temperature;BME280_humidity;BME280_pressure;Samples;Min_cycle;Max_cycle;Signal;HPM_P1;HPM_P2
2024/03/24 00:01:07;;;;;;;2.00;1.65;;;;;;;;;;5909890;28;20044;-71
2024/03/24 00:03:57;;;;;;;1.10;1.10;;;;;;;;;;5910212;28;20041;-72
2024/03/24 00:06:47;;;;;;;1.05;0.98;;;;;;;;;;5909850;28;20044;-72
2024/03/24 00:09:36;;;;;;;1.67;1.30;;;;;;;;;;5909851;28;20502;-72
2024/03/24 00:12:26;;;;;;;1.42;1.33;;;;;;;;;;5909444;28;20041;-71
2024/03/24 00:15:16;;;;;;;2.58;2.00;;;;;;;;;;5909536;28;20040;-71
2024/03/24 00:18:06;;;;;;;1.67;1.58;;;;;;;;;;5892760;28;20106;-72
2024/03/24 00:20:55;;;;;;;0.77;0.77;;;;;;;;;;5892916;28;20215;-71
2024/03/24 00:23:45;;;;;;;1.33;1.23;;;;;;;;;;5909245;28;20032;-71
2024/03/24 00:26:35;;;;;;;3.28;1.05;;;;;;;;;;5908973;28;20044;-72
2024/03/24 00:29:25;;;;;;;2.90;1.55;;;;;;;;;;5909245;28;20045;-71
2024/03/24 00:32:15;;;;;;;1.05;0.95;;;;;;;;;;5892370;28;20475;-71
2024/03/24 00:35:05;;;;;;;3.47;1.58;;;;;;;;;;5909089;28;20049;-71
2024/03/24 00:37:55;;;;;;;5.13;2.63;;;;;;;;;;5909297;28;20543;-71
2024/03/24 00:40:45;;;;;;;2.40;1.77;;;;;;;;;;5909012;28;20444;-71
2024/03/24 00:43:35;;;;;;;1.30;1.20;;;;;;;;;;5908971;28;20063;-71
2024/03/24 00:46:25;;;;;;;1.65;1.55;;;;;;;;;;5908820;28;20497;-71
2024/03/24 00:49:15;;;;;;;0.77;0.73;;;;;;;;;;5908678;28;20143;-71
2024/03/24 00:52:05;;;;;;;1.02;0.93;;;;;;;;;;5908595;28;20048;-72
2024/03/24 00:54:55;;;;;;;2.50;1.45;;;;;;;;;;5909232;28;20064;-72
2024/03/24 00:57:45;;;;;;;1.83;1.45;;;;;;;;;;5908553;28;20422;-71
2024/03/24 01:00:34;;;;;;;0.90;0.90;;;;;;;;;;5907608;28;20058;-71
2024/03/24 01:03:24;;;;;;;2.33;1.40;;;;;;;;;;5887597;28;20121;-71
2024/03/24 01:06:14;;;;;;;1.90;1.40;;;;;;;;;;5908179;28;20053;-71
2024/03/24 01:09:04;;;;;;;14.77;2.75;;;;;;;;;;5908311;28;20464;-71
2024/03/24 01:11:54;;;;;;;1.98;1.88;;;;;;;;;;5908662;28;20066;-71
2024/03/24 01:14:43;;;;;;;4.30;2.03;;;;;;;;;;5908193;28;20504;-71
2024/03/24 01:17:33;;;;;;;3.33;1.13;;;;;;;;;;5891065;28;20049;-71
2024/03/24 01:20:23;;;;;;;0.80;0.73;;;;;;;;;;5908003;28;20045;-71
2024/03/24 01:23:13;;;;;;;1.70;1.13;;;;;;;;;;5907985;28;20055;-71
2024/03/24 01:26:03;;;;;;;1.88;1.52;;;;;;;;;;5907810;28;20044;-71
2024/03/24 01:28:53;;;;;;;0.70;0.70;;;;;;;;;;5891545;28;20047;-71
2024/03/24 01:31:42;;;;;;;2.55;1.90;;;;;;;;;;5907851;28;20049;-71
2024/03/24 01:34:32;;;;;;;2.83;1.23;;;;;;;;;;5891100;28;20070;-71
2024/03/24 01:37:22;;;;;;;1.00;0.95;;;;;;;;;;5907524;28;20044;-71
2024/03/24 01:40:12;;;;;;;1.27;1.17;;;;;;;;;;5907701;28;20244;-71
2024/03/24 01:43:02;;;;;;;0.63;0.55;;;;;;;;;;5907465;28;20370;-71
2024/03/24 01:45:51;;;;;;;3.20;1.40;;;;;;;;;;5907782;28;20044;-71
2024/03/24 01:48:41;;;;;;;3.20;2.13;;;;;;;;;;5890804;28;20058;-71
2024/03/24 01:51:35;;;;;;;1.77;1.23;;;;;;;;;;5907529;28;20048;-71
2024/03/24 01:54:28;;;;;;;3.97;2.67;;;;;;;;;;5907203;28;20036;-71
2024/03/24 01:57:18;;;;;;;1.38;1.25;;;;;;;;;;5890865;28;20486;-71
2024/03/24 02:00:09;;;;;;;1.65;1.55;;;;;;;;;;5890778;28;20075;-71
2024/03/24 02:02:59;;;;;;;3.20;1.27;;;;;;;;;;5907531;28;20481;-71
2024/03/24 02:05:49;;;;;;;3.05;1.48;;;;;;;;;;5907072;28;20460;-71
2024/03/24 02:08:38;;;;;;;1.98;1.35;;;;;;;;;;5907224;28;20053;-71
2024/03/24 02:11:29;;;;;;;1.40;1.23;;;;;;;;;;5907051;28;20071;-71
2024/03/24 02:14:19;;;;;;;2.67;1.83;;;;;;;;;;5907008;28;20048;-71
2024/03/24 02:17:09;;;;;;;1.25;0.90;;;;;;;;;;5906953;28;20040;-71
2024/03/24 02:19:58;;;;;;;2.58;1.70;;;;;;;;;;5890968;28;20040;-71
2024/03/24 02:22:48;;;;;;;3.53;1.63;;;;;;;;;;5907031;28;20041;-71
2024/03/24 02:25:38;;;;;;;3.45;1.92;;;;;;;;;;5906883;28;20061;-72
2024/03/24 02:28:27;;;;;;;1.20;1.10;;;;;;;;;;5907003;28;20059;-71
2024/03/24 02:31:17;;;;;;;3.33;1.75;;;;;;;;;;5907014;28;20055;-71
2024/03/24 02:34:07;;;;;;;2.95;2.15;;;;;;;;;;5906830;28;20413;-71
2024/03/24 02:36:57;;;;;;;1.67;1.58;;;;;;;;;;5907166;28;20080;-71
2024/03/24 02:39:46;;;;;;;1.45;1.05;;;;;;;;;;5906939;28;20040;-71
2024/03/24 02:42:37;;;;;;;2.15;1.63;;;;;;;;;;5906895;28;20363;-71
2024/03/24 02:45:27;;;;;;;1.77;1.25;;;;;;;;;;5906818;28;20043;-71
2024/03/24 02:48:16;;;;;;;2.08;1.40;;;;;;;;;;5906800;28;20421;-71
2024/03/24 02:51:06;;;;;;;2.50;1.48;;;;;;;;;;5906768;28;20049;-71
2024/03/24 02:53:56;;;;;;;4.80;1.55;;;;;;;;;;5906989;28;20488;-71
2024/03/24 02:56:46;;;;;;;10.60;1.88;;;;;;;;;;5906623;28;20060;-71
2024/03/24 02:59:35;;;;;;;1.58;1.38;;;;;;;;;;5906591;28;20102;-71
2024/03/24 03:02:25;;;;;;;2.72;1.83;;;;;;;;;;5906521;28;20098;-71
2024/03/24 03:05:15;;;;;;;3.25;1.75;;;;;;;;;;5906674;28;20090;-71
2024/03/24 03:08:06;;;;;;;5.63;2.05;;;;;;;;;;5889961;28;20095;-70
2024/03/24 03:10:56;;;;;;;3.00;1.48;;;;;;;;;;5906898;28;20045;-70
2024/03/24 03:13:45;;;;;;;1.67;1.23;;;;;;;;;;5906438;28;20515;-70
2024/03/24 03:16:35;;;;;;;2.35;1.20;;;;;;;;;;5906282;28;20374;-70
2024/03/24 03:19:28;;;;;;;2.88;2.22;;;;;;;;;;5906396;28;20167;-70
2024/03/24 03:22:17;;;;;;;3.58;1.88;;;;;;;;;;5906625;28;20394;-70
2024/03/24 03:25:08;;;;;;;1.25;1.02;;;;;;;;;;5908482;28;20044;-69
2024/03/24 03:27:58;;;;;;;6.72;1.60;;;;;;;;;;5910945;28;20040;-69
2024/03/24 03:30:47;;;;;;;6.50;2.05;;;;;;;;;;5910592;28;20051;-69
2024/03/24 03:33:37;;;;;;;2.03;1.70;;;;;;;;;;5910473;28;20448;-69
2024/03/24 03:36:27;;;;;;;1.70;1.52;;;;;;;;;;5910453;28;20049;-69
2024/03/24 03:39:17;;;;;;;1.95;1.45;;;;;;;;;;5910219;28;20587;-69
2024/03/24 03:42:06;;;;;;;3.13;2.22;;;;;;;;;;5910345;28;20098;-69
2024/03/24 03:44:56;;;;;;;6.70;2.13;;;;;;;;;;5910899;28;20040;-69
2024/03/24 03:47:46;;;;;;;5.03;1.73;;;;;;;;;;5910243;28;20052;-69
2024/03/24 03:50:37;;;;;;;1.90;1.80;;;;;;;;;;5893704;28;20048;-69
2024/03/24 03:53:27;;;;;;;8.63;1.92;;;;;;;;;;5910272;28;20051;-69
2024/03/24 03:56:17;;;;;;;4.15;2.33;;;;;;;;;;5910030;28;20110;-69
2024/03/24 03:59:07;;;;;;;1.63;1.52;;;;;;;;;;5910165;28;20053;-69
2024/03/24 04:01:57;;;;;;;4.88;2.78;;;;;;;;;;5910377;28;20094;-69
2024/03/24 04:04:46;;;;;;;4.30;3.45;;;;;;;;;;5910025;28;20052;-69
2024/03/24 04:07:37;;;;;;;5.95;3.78;;;;;;;;;;5909875;28;20055;-69
2024/03/24 04:10:27;;;;;;;6.22;4.07;;;;;;;;;;5909997;28;20048;-69
2024/03/24 04:13:17;;;;;;;3.65;2.03;;;;;;;;;;5909764;28;20052;-69
2024/03/24 04:16:07;;;;;;;8.30;2.33;;;;;;;;;;5909378;28;20048;-69
2024/03/24 04:18:56;;;;;;;2.00;1.73;;;;;;;;;;5910014;28;20055;-69
2024/03/24 04:21:47;;;;;;;4.45;2.00;;;;;;;;;;5909627;28;20052;-69
2024/03/24 04:24:37;;;;;;;8.82;3.95;;;;;;;;;;5909509;28;20044;-69
2024/03/24 04:27:26;;;;;;;1.63;1.38;;;;;;;;;;5909142;28;20047;-69
2024/03/24 04:30:16;;;;;;;3.70;2.05;;;;;;;;;;5909302;28;20399;-69
2024/03/24 04:33:06;;;;;;;3.60;1.35;;;;;;;;;;5909063;28;20089;-69
2024/03/24 04:35:56;;;;;;;3.55;2.13;;;;;;;;;;5909552;28;20101;-69
2024/03/24 04:38:46;;;;;;;5.15;2.00;;;;;;;;;;5909072;28;20050;-69
2024/03/24 04:41:36;;;;;;;4.72;1.95;;;;;;;;;;5909091;28;20037;-69
2024/03/24 04:44:25;;;;;;;2.92;2.03;;;;;;;;;;5909087;28;20040;-69
2024/03/24 04:47:16;;;;;;;2.03;1.48;;;;;;;;;;5908920;28;20155;-69
2024/03/24 04:50:06;;;;;;;3.15;1.83;;;;;;;;;;5908753;28;20063;-70
2024/03/24 04:52:58;;;;;;;2.38;1.35;;;;;;;;;;5909300;28;20041;-70
2024/03/24 04:55:48;;;;;;;3.33;2.30;;;;;;;;;;5908584;28;20498;-70
2024/03/24 04:58:37;;;;;;;3.25;2.33;;;;;;;;;;5908661;28;20048;-70
2024/03/24 05:01:27;;;;;;;4.63;3.67;;;;;;;;;;5908489;28;20049;-70
2024/03/24 05:04:17;;;;;;;3.50;2.55;;;;;;;;;;5908560;28;20049;-70
2024/03/24 05:07:07;;;;;;;3.70;2.65;;;;;;;;;;5908266;28;20090;-70
2024/03/24 05:09:57;;;;;;;3.80;2.85;;;;;;;;;;5908806;28;20123;-70
2024/03/24 05:12:47;;;;;;;4.32;2.95;;;;;;;;;;5908195;28;20094;-70
2024/03/24 05:15:37;;;;;;;7.18;3.58;;;;;;;;;;5908024;28;20074;-70
2024/03/24 05:18:27;;;;;;;3.00;2.35;;;;;;;;;;5908108;28;20056;-70
2024/03/24 05:21:17;;;;;;;3.47;2.38;;;;;;;;;;5908261;28;20489;-70
2024/03/24 05:24:09;;;;;;;2.40;2.10;;;;;;;;;;5908130;28;20548;-70
2024/03/24 05:26:59;;;;;;;4.82;2.60;;;;;;;;;;5908282;28;20037;-71
2024/03/24 05:29:49;;;;;;;5.38;2.70;;;;;;;;;;5908072;28;20139;-72
2024/03/24 05:32:38;;;;;;;7.60;3.15;;;;;;;;;;5908040;28;20131;-71
2024/03/24 05:35:28;;;;;;;3.97;2.75;;;;;;;;;;5907540;28;20044;-71
2024/03/24 05:38:18;;;;;;;7.20;2.85;;;;;;;;;;5907590;28;20052;-71
2024/03/24 05:41:09;;;;;;;2.53;2.33;;;;;;;;;;5907566;28;20511;-71
2024/03/24 05:43:59;;;;;;;5.13;3.42;;;;;;;;;;5908000;28;20052;-71
2024/03/24 05:46:49;;;;;;;7.60;3.45;;;;;;;;;;5907348;28;20086;-71
2024/03/24 05:49:39;;;;;;;2.70;2.50;;;;;;;;;;5907811;28;20044;-71
2024/03/24 05:52:30;;;;;;;6.20;2.25;;;;;;;;;;5907017;28;20467;-71
2024/03/24 05:55:19;;;;;;;2.92;2.25;;;;;;;;;;5907440;28;20048;-71
2024/03/24 05:58:09;;;;;;;4.63;2.25;;;;;;;;;;5890800;28;20048;-71
2024/03/24 06:01:03;;;;;;;3.58;3.28;;;;;;;;;;5907718;28;20058;-71
2024/03/24 06:03:53;;;;;;;6.05;3.60;;;;;;;;;;5907400;28;20051;-71
2024/03/24 06:06:43;;;;;;;4.22;2.47;;;;;;;;;;5890757;28;20546;-71
2024/03/24 06:09:35;;;;;;;4.03;3.35;;;;;;;;;;5907285;28;20047;-71
2024/03/24 06:12:27;;;;;;;4.35;2.40;;;;;;;;;;5906788;28;20597;-71
2024/03/24 06:15:19;;;;;;;2.53;2.33;;;;;;;;;;5907445;28;20395;-72
2024/03/24 06:18:09;;;;;;;3.40;3.05;;;;;;;;;;5906806;28;20119;-72
2024/03/24 06:21:00;;;;;;;4.53;2.05;;;;;;;;;;5907508;28;20060;-72
2024/03/24 06:23:53;;;;;;;4.70;3.05;;;;;;;;;;5907198;28;20046;-71
2024/03/24 06:26:43;;;;;;;9.60;3.88;;;;;;;;;;5906710;28;20048;-72
2024/03/24 06:29:33;;;;;;;3.92;2.92;;;;;;;;;;5907086;28;20047;-71
2024/03/24 06:32:23;;;;;;;2.58;2.08;;;;;;;;;;5907038;28;20152;-72
2024/03/24 06:35:12;;;;;;;3.85;2.67;;;;;;;;;;5907187;28;20059;-72
2024/03/24 06:38:02;;;;;;;2.50;1.67;;;;;;;;;;5889978;28;20457;-72
2024/03/24 06:40:52;;;;;;;9.40;3.65;;;;;;;;;;5907157;28;20045;-71
2024/03/24 06:43:42;;;;;;;3.28;2.00;;;;;;;;;;5906741;28;20090;-72
2024/03/24 06:46:32;;;;;;;3.30;3.00;;;;;;;;;;5906751;28;20045;-71
2024/03/24 06:49:22;;;;;;;4.40;2.72;;;;;;;;;;5906954;28;20083;-72
2024/03/24 06:52:11;;;;;;;4.00;2.78;;;;;;;;;;5890139;28;20049;-71
2024/03/24 06:55:02;;;;;;;4.45;3.55;;;;;;;;;;5906652;28;20044;-71
2024/03/24 06:57:55;;;;;;;4.47;3.42;;;;;;;;;;5890368;28;20053;-71
2024/03/24 07:00:45;;;;;;;3.15;2.92;;;;;;;;;;5910131;28;20075;-72
2024/03/24 07:03:37;;;;;;;3.88;2.67;;;;;;;;;;5911309;28;20048;-72
2024/03/24 07:06:27;;;;;;;2.28;2.08;;;;;;;;;;5894543;28;20486;-71
2024/03/24 07:09:17;;;;;;;9.80;3.15;;;;;;;;;;5911155;28;20045;-71
2024/03/24 07:12:07;;;;;;;4.85;3.33;;;;;;;;;;5910724;28;20055;-71
2024/03/24 07:14:57;;;;;;;8.05;4.97;;;;;;;;;;5911417;28;20044;-71
2024/03/24 07:17:47;;;;;;;5.50;4.82;;;;;;;;;;5884245;28;20055;-72
2024/03/24 07:20:40;;;;;;;12.43;4.30;;;;;;;;;;5910806;28;20098;-72
2024/03/24 07:23:30;;;;;;;5.85;2.30;;;;;;;;;;5910436;28;20534;-72
2024/03/24 07:26:19;;;;;;;7.50;4.82;;;;;;;;;;5910622;28;20071;-72
2024/03/24 07:29:09;;;;;;;23.63;16.33;;;;;;;;;;5910755;28;20044;-72
2024/03/24 07:31:59;;;;;;;43.38;15.88;;;;;;;;;;5910737;28;20417;-72
2024/03/24 07:34:49;;;;;;;18.42;9.23;;;;;;;;;;5894088;28;20158;-72
2024/03/24 07:37:39;;;;;;;15.40;11.52;;;;;;;;;;5893774;28;20041;-73
2024/03/24 07:40:29;;;;;;;8.48;5.47;;;;;;;;;;5893961;28;20040;-72
2024/03/24 07:43:18;;;;;;;11.65;9.07;;;;;;;;;;5910546;28;20052;-72
2024/03/24 07:46:08;;;;;;;6.03;4.30;;;;;;;;;;5910119;28;20133;-72
2024/03/24 07:48:58;;;;;;;4.45;2.78;;;;;;;;;;5910970;28;20490;-72
2024/03/24 07:51:48;;;;;;;16.55;5.95;;;;;;;;;;5910040;28;20044;-72
2024/03/24 07:54:37;;;;;;;3.33;1.80;;;;;;;;;;5910072;28;20056;-72
2024/03/24 07:57:27;;;;;;;6.80;2.35;;;;;;;;;;5909921;28;20052;-72
2024/03/24 08:00:19;;;;;;;3.05;1.58;;;;;;;;;;5910002;28;20040;-72
2024/03/24 08:03:09;;;;;;;9.02;7.03;;;;;;;;;;5910067;28;20135;-72
2024/03/24 08:05:59;;;;;;;5.22;3.00;;;;;;;;;;5910276;28;20056;-72
2024/03/24 08:08:49;;;;;;;3.47;1.80;;;;;;;;;;5909910;28;20064;-72
2024/03/24 08:11:38;;;;;;;5.35;2.38;;;;;;;;;;5909416;28;20052;-71
2024/03/24 08:14:28;;;;;;;3.47;2.67;;;;;;;;;;5909856;28;20454;-72
2024/03/24 08:17:18;;;;;;;2.55;1.70;;;;;;;;;;5909571;28;20040;-71
2024/03/24 08:20:08;;;;;;;5.22;3.28;;;;;;;;;;5909542;28;20128;-71
2024/03/24 08:23:00;;;;;;;4.60;2.92;;;;;;;;;;5909863;28;20054;-71
2024/03/24 08:25:50;;;;;;;5.28;2.85;;;;;;;;;;5893083;28;20049;-71
2024/03/24 08:28:39;;;;;;;2.65;2.25;;;;;;;;;;5909343;28;20460;-72
2024/03/24 08:31:29;;;;;;;9.90;5.07;;;;;;;;;;5909100;28;20131;-71
2024/03/24 08:34:19;;;;;;;7.00;2.60;;;;;;;;;;5909256;28;20041;-71
2024/03/24 08:37:09;;;;;;;2.67;1.92;;;;;;;;;;5909417;28;20402;-72
2024/03/24 08:39:59;;;;;;;3.35;2.30;;;;;;;;;;5909764;28;20049;-72
2024/03/24 08:42:49;;;;;;;7.65;4.13;;;;;;;;;;5909182;28;20063;-72
2024/03/24 08:45:39;;;;;;;11.43;3.45;;;;;;;;;;5892370;28;20490;-71
2024/03/24 08:48:29;;;;;;;8.63;4.85;;;;;;;;;;5892519;28;20412;-71
2024/03/24 08:51:19;;;;;;;5.03;3.25;;;;;;;;;;5909028;28;20512;-72
2024/03/24 08:54:09;;;;;;;5.68;4.45;;;;;;;;;;5908920;28;20046;-71
2024/03/24 08:56:58;;;;;;;10.63;4.90;;;;;;;;;;5909334;28;20386;-71
2024/03/24 08:59:48;;;;;;;6.22;4.53;;;;;;;;;;5892366;28;20047;-72
2024/03/24 09:02:38;;;;;;;4.88;4.10;;;;;;;;;;5908785;28;20047;-72
2024/03/24 09:05:28;;;;;;;5.35;4.55;;;;;;;;;;5908630;28;20048;-73
2024/03/24 09:08:17;;;;;;;5.43;3.55;;;;;;;;;;5908901;28;20090;-77
2024/03/24 09:11:09;;;;;;;3.05;2.60;;;;;;;;;;5909037;28;20048;-76
2024/03/24 09:13:59;;;;;;;4.28;2.88;;;;;;;;;;5909604;28;20406;-77
2024/03/24 09:16:48;;;;;;;19.70;15.88;;;;;;;;;;5908844;28;20037;-77
2024/03/24 09:19:38;;;;;;;9.48;5.97;;;;;;;;;;5908606;28;20040;-77
2024/03/24 09:22:28;;;;;;;11.00;7.22;;;;;;;;;;5908293;28;20136;-77
2024/03/24 09:25:18;;;;;;;13.68;6.10;;;;;;;;;;5908672;28;20132;-76
2024/03/24 09:28:08;;;;;;;7.30;5.45;;;;;;;;;;5891907;28;20055;-76
2024/03/24 09:31:03;;;;;;;2.17;1.90;;;;;;;;;;5892160;28;20044;-77
2024/03/24 09:33:52;;;;;;;4.45;2.88;;;;;;;;;;5907982;28;20102;-76
2024/03/24 09:36:42;;;;;;;6.40;4.30;;;;;;;;;;5907751;28;20447;-76
2024/03/24 09:39:32;;;;;;;4.82;3.17;;;;;;;;;;5890934;28;20382;-75
2024/03/24 09:42:22;;;;;;;3.20;2.72;;;;;;;;;;5907905;28;20044;-75
2024/03/24 09:45:17;;;;;;;4.63;3.17;;;;;;;;;;5907874;28;20051;-74
2024/03/24 09:48:12;;;;;;;2.28;1.77;;;;;;;;;;5874883;28;20071;-74
2024/03/24 09:51:03;;;;;;;8.13;2.58;;;;;;;;;;5908035;28;20052;-75
2024/03/24 09:53:53;;;;;;;1.70;1.60;;;;;;;;;;5908389;28;20395;-75
2024/03/24 09:56:44;;;;;;;2.83;2.15;;;;;;;;;;5907807;28;20071;-75
2024/03/24 09:59:36;;;;;;;2.30;2.10;;;;;;;;;;5907325;28;20048;-75
2024/03/24 10:02:26;;;;;;;3.33;1.48;;;;;;;;;;5907525;28;20045;-75
2024/03/24 10:05:17;;;;;;;2.05;1.88;;;;;;;;;;5907452;28;20436;-74
2024/03/24 10:08:07;;;;;;;1.70;1.25;;;;;;;;;;5907486;28;20057;-74
2024/03/24 10:11:27;;;;;;;3.25;1.60;;;;;;;;;;5891110;28;20393;-74
2024/03/24 10:14:24;;;;;;;1.17;1.08;;;;;;;;;;5907071;28;20063;-73
2024/03/24 10:17:18;;;;;;;1.98;1.52;;;;;;;;;;5907211;28;20052;-73
2024/03/24 10:20:11;;;;;;;10.20;2.00;;;;;;;;;;5907339;28;20044;-73
2024/03/24 10:23:01;;;;;;;2.95;2.40;;;;;;;;;;5907067;28;20059;-73
2024/03/24 10:25:57;;;;;;;7.55;6.65;;;;;;;;;;5890765;28;20772;-73
2024/03/24 10:28:49;;;;;;;6.05;3.80;;;;;;;;;;5907120;28;20490;-73
2024/03/24 10:31:39;;;;;;;1.52;1.42;;;;;;;;;;5906867;28;20478;-74
2024/03/24 10:34:33;;;;;;;1.60;1.50;;;;;;;;;;5910169;28;20162;-73
2024/03/24 10:37:25;;;;;;;4.65;2.90;;;;;;;;;;5911543;28;20037;-73
2024/03/24 10:40:15;;;;;;;3.97;3.15;;;;;;;;;;5911733;28;20048;-73
2024/03/24 10:43:09;;;;;;;3.42;2.35;;;;;;;;;;5911808;28;20118;-72
2024/03/24 10:46:00;;;;;;;3.55;2.65;;;;;;;;;;5911888;28;20332;-72
2024/03/24 10:48:50;;;;;;;7.20;3.25;;;;;;;;;;5911538;28;20432;-73
2024/03/24 10:51:40;;;;;;;3.67;3.13;;;;;;;;;;5894761;28;20059;-72
2024/03/24 10:54:31;;;;;;;5.95;3.40;;;;;;;;;;5911098;28;20094;-72
2024/03/24 10:57:25;;;;;;;3.90;3.25;;;;;;;;;;5894758;28;20055;-72
2024/03/24 11:00:16;;;;;;;15.65;4.80;;;;;;;;;;5911089;28;20048;-72
2024/03/24 11:03:08;;;;;;;2.28;1.90;;;;;;;;;;5911298;28;20044;-72
2024/03/24 11:05:58;;;;;;;2.28;2.08;;;;;;;;;;5895187;28;20429;-72
2024/03/24 11:08:48;;;;;;;8.98;4.25;;;;;;;;;;5894230;28;20062;-72
2024/03/24 11:11:39;;;;;;;3.10;2.63;;;;;;;;;;5910768;28;20032;-72
2024/03/24 11:14:29;;;;;;;1.95;1.58;;;;;;;;;;5911128;28;20048;-73
2024/03/24 11:17:19;;;;;;;2.25;1.35;;;;;;;;;;5910702;28;20394;-72
2024/03/24 11:20:30;;;;;;;5.22;2.08;;;;;;;;;;5910693;28;20062;-72
2024/03/24 11:23:36;;;;;;;3.85;1.90;;;;;;;;;;5910423;28;21080;-72
2024/03/24 11:26:31;;;;;;;2.83;0.88;;;;;;;;;;5910810;28;20441;-72
2024/03/24 11:29:48;;;;;;;0.95;0.85;;;;;;;;;;5910728;28;20059;-72
2024/03/24 11:33:00;;;;;;;1.13;0.68;;;;;;;;;;5881411;28;20098;-72
2024/03/24 11:35:51;;;;;;;0.73;0.68;;;;;;;;;;5894115;28;20036;-72
2024/03/24 11:38:41;;;;;;;0.47;0.47;;;;;;;;;;5910047;28;20045;-72
2024/03/24 11:41:31;;;;;;;0.52;0.52;;;;;;;;;;5910300;28;20090;-72
2024/03/24 11:44:21;;;;;;;0.47;0.47;;;;;;;;;;5893471;28;20056;-72
2024/03/24 11:47:11;;;;;;;7.88;1.17;;;;;;;;;;5909813;28;20045;-72
2024/03/24 11:50:01;;;;;;;0.80;0.80;;;;;;;;;;5910366;28;20072;-71
2024/03/24 11:52:52;;;;;;;0.75;0.70;;;;;;;;;;5894200;28;20056;-72
2024/03/24 11:55:42;;;;;;;0.55;0.55;;;;;;;;;;5910094;28;20114;-72
2024/03/24 11:58:32;;;;;;;1.30;1.20;;;;;;;;;;5909816;28;20037;-72
2024/03/24 12:01:24;;;;;;;0.70;0.60;;;;;;;;;;5910012;28;20127;-71
2024/03/24 12:04:14;;;;;;;6.05;2.05;;;;;;;;;;5909993;28;20056;-72
2024/03/24 12:07:06;;;;;;;1.00;0.80;;;;;;;;;;5909709;28;20048;-72
2024/03/24 12:09:56;;;;;;;5.75;2.28;;;;;;;;;;5909741;28;20040;-71
2024/03/24 12:12:46;;;;;;;3.75;2.42;;;;;;;;;;5882659;28;20059;-71
2024/03/24 12:15:36;;;;;;;4.18;2.10;;;;;;;;;;5899043;28;20405;-71
2024/03/24 12:18:26;;;;;;;2.90;0.88;;;;;;;;;;5909414;28;20051;-71
2024/03/24 12:21:16;;;;;;;2.85;2.30;;;;;;;;;;5908889;28;20159;-71
2024/03/24 12:24:06;;;;;;;1.55;1.30;;;;;;;;;;5909272;28;20052;-71
2024/03/24 12:26:56;;;;;;;1.92;1.80;;;;;;;;;;5909620;28;20044;-71
2024/03/24 12:29:57;;;;;;;4.72;3.05;;;;;;;;;;5891500;28;20055;-71
2024/03/24 12:32:49;;;;;;;4.13;2.83;;;;;;;;;;5909576;28;20036;-72
2024/03/24 12:35:39;;;;;;;5.35;3.13;;;;;;;;;;5909203;28;20444;-71
2024/03/24 12:38:30;;;;;;;6.25;3.25;;;;;;;;;;5909000;28;20123;-71
2024/03/24 12:41:22;;;;;;;6.65;3.75;;;;;;;;;;5892521;28;20052;-71
2024/03/24 12:44:23;;;;;;;3.90;2.38;;;;;;;;;;5908748;28;20044;-71
2024/03/24 12:47:17;;;;;;;1.00;0.90;;;;;;;;;;5892460;28;20524;-71
2024/03/24 12:50:30;;;;;;;1.90;1.70;;;;;;;;;;5908701;28;20075;-70
2024/03/24 12:53:44;;;;;;;5.32;2.15;;;;;;;;;;5908822;28;20413;-70
2024/03/24 12:56:34;;;;;;;4.53;2.05;;;;;;;;;;5907491;28;20064;-70
2024/03/24 12:59:24;;;;;;;4.93;1.80;;;;;;;;;;5908347;28;20409;-70
2024/03/24 13:02:14;;;;;;;5.20;2.35;;;;;;;;;;5908073;28;20052;-70
2024/03/24 13:05:05;;;;;;;3.70;2.13;;;;;;;;;;5891534;28;20056;-70
2024/03/24 13:07:56;;;;;;;3.90;3.17;;;;;;;;;;5908809;28;20044;-70
2024/03/24 13:10:46;;;;;;;3.80;1.90;;;;;;;;;;5908024;28;20098;-70
2024/03/24 13:13:38;;;;;;;4.95;2.92;;;;;;;;;;5891750;28;20044;-70
2024/03/24 13:16:47;;;;;;;3.28;2.10;;;;;;;;;;5907842;28;20063;-70
2024/03/24 13:19:51;;;;;;;7.35;3.63;;;;;;;;;;5907916;28;20040;-70
2024/03/24 13:22:41;;;;;;;3.20;2.15;;;;;;;;;;5907842;28;20044;-70
2024/03/24 13:25:31;;;;;;;2.03;1.88;;;;;;;;;;5891368;28;20055;-70
2024/03/24 13:28:21;;;;;;;2.38;1.75;;;;;;;;;;5888651;28;20068;-69
2024/03/24 13:31:10;;;;;;;2.25;1.05;;;;;;;;;;5884847;28;20041;-69
2024/03/24 13:34:00;;;;;;;0.70;0.70;;;;;;;;;;5885456;28;20052;-69
2024/03/24 13:36:53;;;;;;;2.17;1.40;;;;;;;;;;5884925;28;20041;-69
2024/03/24 13:40:06;;;;;;;1.60;1.35;;;;;;;;;;5884760;28;20048;-70
2024/03/24 13:43:32;;;;;;;3.17;1.63;;;;;;;;;;5885141;28;20053;-70
2024/03/24 13:46:27;;;;;;;4.45;1.88;;;;;;;;;;5870947;28;20068;-69
2024/03/24 13:49:17;;;;;;;0.75;0.75;;;;;;;;;;5884638;28;20506;-69
2024/03/24 13:52:09;;;;;;;2.22;1.20;;;;;;;;;;5884524;28;20119;-69
2024/03/24 13:55:00;;;;;;;2.75;1.70;;;;;;;;;;5868847;28;20124;-69
2024/03/24 13:57:50;;;;;;;1.48;1.38;;;;;;;;;;5878905;28;20044;-69
2024/03/24 14:00:40;;;;;;;0.57;0.57;;;;;;;;;;5889738;28;20102;-69
2024/03/24 14:03:30;;;;;;;3.00;0.75;;;;;;;;;;5884707;28;20049;-69
2024/03/24 14:06:23;;;;;;;0.68;0.68;;;;;;;;;;5884917;28;20186;-69
2024/03/24 14:09:13;;;;;;;2.85;2.47;;;;;;;;;;5867108;28;20045;-70
2024/03/24 14:12:06;;;;;;;0.98;0.93;;;;;;;;;;5883872;28;20368;-70
2024/03/24 14:15:12;;;;;;;0.95;0.90;;;;;;;;;;5884705;28;20045;-69
2024/03/24 14:18:27;;;;;;;1.40;0.75;;;;;;;;;;5883657;28;20041;-70
2024/03/24 14:21:30;;;;;;;2.03;1.33;;;;;;;;;;5883989;28;20056;-70
2024/03/24 14:24:28;;;;;;;2.70;1.70;;;;;;;;;;5901281;28;20045;-70
2024/03/24 14:27:18;;;;;;;3.45;2.83;;;;;;;;;;5883632;28;20068;-70
2024/03/24 14:30:08;;;;;;;3.50;2.05;;;;;;;;;;5883856;28;20049;-70
2024/03/24 14:32:59;;;;;;;2.28;1.88;;;;;;;;;;5884517;28;20463;-70
2024/03/24 14:36:07;;;;;;;3.58;2.30;;;;;;;;;;5884121;28;20045;-69
2024/03/24 14:39:12;;;;;;;2.28;1.75;;;;;;;;;;5888140;28;20117;-69
2024/03/24 14:42:29;;;;;;;1.95;1.17;;;;;;;;;;5866404;28;20056;-69
2024/03/24 14:46:12;;;;;;;1.00;0.90;;;;;;;;;;5867739;28;20053;-69
2024/03/24 14:49:02;;;;;;;0.95;0.88;;;;;;;;;;5855506;28;20037;-69
2024/03/24 14:51:52;;;;;;;1.10;0.70;;;;;;;;;;5906670;28;20132;-68
2024/03/24 14:54:42;;;;;;;1.35;1.13;;;;;;;;;;5906420;28;20078;-69
2024/03/24 14:57:32;;;;;;;3.38;1.17;;;;;;;;;;5906025;28;20093;-69
2024/03/24 15:00:22;;;;;;;0.77;0.77;;;;;;;;;;5906330;28;20044;-69
2024/03/24 15:03:13;;;;;;;2.88;1.35;;;;;;;;;;5907202;28;20048;-69
2024/03/24 15:06:02;;;;;;;2.80;2.08;;;;;;;;;;5905124;28;20417;-69
2024/03/24 15:08:52;;;;;;;4.88;1.77;;;;;;;;;;5905241;28;20143;-69
2024/03/24 15:11:42;;;;;;;1.33;1.20;;;;;;;;;;5905330;28;20543;-69
2024/03/24 15:14:32;;;;;;;2.45;2.20;;;;;;;;;;5889019;28;20090;-69
2024/03/24 15:17:22;;;;;;;4.80;3.03;;;;;;;;;;5879255;28;20049;-69
2024/03/24 15:20:12;;;;;;;3.92;2.25;;;;;;;;;;5895552;28;20057;-69
2024/03/24 15:23:02;;;;;;;3.17;1.33;;;;;;;;;;5910283;28;20541;-69
2024/03/24 15:25:53;;;;;;;1.90;1.50;;;;;;;;;;5906812;28;20051;-69
2024/03/24 15:28:42;;;;;;;1.98;1.70;;;;;;;;;;5910401;28;20045;-69
2024/03/24 15:31:32;;;;;;;2.90;2.45;;;;;;;;;;5910302;28;20052;-69
2024/03/24 15:34:22;;;;;;;10.20;5.47;;;;;;;;;;5910533;28;20048;-69
2024/03/24 15:37:12;;;;;;;3.03;2.05;;;;;;;;;;5893866;28;20103;-69
2024/03/24 15:40:03;;;;;;;3.78;1.83;;;;;;;;;;5910285;28;20509;-69
2024/03/24 15:42:53;;;;;;;4.93;2.00;;;;;;;;;;5910853;28;20044;-68
2024/03/24 15:45:43;;;;;;;2.13;1.55;;;;;;;;;;5909926;28;20122;-68
2024/03/24 15:48:33;;;;;;;3.60;2.67;;;;;;;;;;5886773;28;20063;-69
2024/03/24 15:51:23;;;;;;;31.80;2.83;;;;;;;;;;5879788;28;20083;-69
2024/03/24 15:54:13;;;;;;;1.65;1.40;;;;;;;;;;5878747;28;20048;-69
2024/03/24 15:57:43;;;;;;;5.15;2.83;;;;;;;;;;5910556;28;20422;-69
2024/03/24 16:00:44;;;;;;;6.13;4.70;;;;;;;;;;5909256;28;20055;-69
2024/03/24 16:03:33;;;;;;;4.53;3.42;;;;;;;;;;5897460;28;20049;-69
2024/03/24 16:06:23;;;;;;;3.30;2.40;;;;;;;;;;5909496;28;20048;-69
2024/03/24 16:09:26;;;;;;;6.68;4.13;;;;;;;;;;5883179;28;20235;-69
2024/03/24 16:14:34;;;;;;;6.25;3.50;;;;;;;;;;5863533;27;1291710;-68
2024/03/24 16:17:23;;;;;;;8.05;5.60;;;;;;;;;;5881117;28;20045;-68
2024/03/24 16:20:30;;;;;;;15.73;4.72;;;;;;;;;;5880878;28;20060;-68
2024/03/24 16:23:22;;;;;;;8.82;5.35;;;;;;;;;;5881010;28;22604;-68
2024/03/24 16:26:12;;;;;;;7.43;6.18;;;;;;;;;;5864611;28;20045;-68
2024/03/24 16:29:03;;;;;;;12.00;7.03;;;;;;;;;;5879683;28;20103;-69
2024/03/24 16:34:15;;;;;;;11.25;6.38;;;;;;;;;;5847246;27;1305574;-68
2024/03/24 16:37:04;;;;;;;14.43;8.70;;;;;;;;;;5843553;28;20054;-69
2024/03/24 16:39:54;;;;;;;18.55;10.10;;;;;;;;;;5843134;28;20058;-69
2024/03/24 16:42:44;;;;;;;14.85;8.38;;;;;;;;;;5835263;28;20428;-69
2024/03/24 16:45:34;;;;;;;10.00;6.22;;;;;;;;;;5848466;28;20054;-69
2024/03/24 16:48:23;;;;;;;9.38;7.15;;;;;;;;;;5880465;28;20358;-69
2024/03/24 16:51:13;;;;;;;13.73;8.32;;;;;;;;;;5881265;28;20053;-69
2024/03/24 16:54:03;;;;;;;16.60;10.65;;;;;;;;;;5880099;28;20077;-69
2024/03/24 16:56:53;;;;;;;20.30;10.70;;;;;;;;;;5880563;28;20860;-68
2024/03/24 16:59:43;;;;;;;18.13;10.90;;;;;;;;;;5879778;28;20125;-69
2024/03/24 17:02:33;;;;;;;18.20;9.68;;;;;;;;;;5880153;28;20069;-69
2024/03/24 17:05:23;;;;;;;11.60;5.32;;;;;;;;;;5880169;28;20479;-69
2024/03/24 17:08:12;;;;;;;7.22;4.70;;;;;;;;;;5879782;28;20072;-68
2024/03/24 17:11:02;;;;;;;5.50;3.47;;;;;;;;;;5893727;28;20478;-69